Time;durP1;ratioP1;P1;durP2;ratioP2;P2;SDS_P1;SDS_P2;PMS_P1;PMS_P2;Temp;Humidity;BMP_temperature;BMP_pressure;BME280_temperature;BME280_humidity;BME280_pressure;Samples;Min_cycle;Max_cycle;Signal;HPM_P1;HPM_P2
2024/04/06 00:01:52;;;;;;;;;;;;;;;;;;5082540;28;20061;-68
2024/04/06 00:04:17;;;;;;;;;;;;;;;;;;5076396;28;19919;-68
2024/04/06 00:06:43;;;;;;;;;;;;;;;;;;5080817;28;19927;-69
2024/04/06 00:09:12;;;;;;;;;;;;;;;;;;5082380;28;20019;-69
2024/04/06 00:11:37;;;;;;;;;;;;;;;;;;5064437;28;19931;-70
2024/04/06 00:14:02;;;;;;;;;;;;;;;;;;5080883;28;19920;-70
2024/04/06 00:16:30;;;;;;;;;;;;;;;;;;5082341;28;19923;-69
2024/04/06 00:19:04;;;;;;;;;;;;;;;;;;5080018;28;20351;-69
2024/04/06 00:21:29;;;;;;;;;;;;;;;;;;5079524;28;19927;-69
2024/04/06 00:23:54;;;;;;;;;;;;;;;;;;5079455;28;19919;-70
2024/04/06 00:26:22;;;;;;;;;;;;;;;;;;5082562;28;19924;-69
2024/04/06 00:28:47;;;;;;;;;;;;;;;;;;5080226;28;19940;-68
2024/04/06 00:31:15;;;;;;;;;;;;;;;;;;5083000;28;19943;-70
2024/04/06 00:33:41;;;;;;;;;;;;;;;;;;5079801;28;19922;-69
2024/04/06 00:36:09;;;;;;;;;;;;;;;;;;5081483;28;19968;-68
2024/04/06 00:38:37;;;;;;;;;;;;;;;;;;5079268;28;19920;-68
2024/04/06 00:41:02;;;;;;;;;;;;;;;;;;5080125;28;20000;-68
2024/04/06 00:43:28;;;;;;;;;;;;;;;;;;5079556;28;20377;-69
2024/04/06 00:45:53;;;;;;;;;;;;;;;;;;5059806;28;19916;-68
2024/04/06 00:48:18;;;;;;;;;;;;;;;;;;5078286;28;19967;-69
2024/04/06 00:50:46;;;;;;;;;;;;;;;;;;5079895;28;20012;-68
2024/04/06 00:53:12;;;;;;;;;;;;;;;;;;5079011;28;20103;-69
2024/04/06 00:55:39;;;;;;;;;;;;;;;;;;5080372;28;19917;-69
2024/04/06 00:58:10;;;;;;;;;;;;;;;;;;5079885;28;19920;-68
2024/04/06 01:00:35;;;;;;;;;;;;;;;;;;5079865;28;20410;-69
2024/04/06 01:03:04;;;;;;;;;;;;;;;;;;5080941;28;19916;-69
2024/04/06 01:05:31;;;;;;;;;;;;;;;;;;5080699;28;19926;-69
2024/04/06 01:07:59;;;;;;;;;;;;;;;;;;5064909;28;20363;-69
2024/04/06 01:10:27;;;;;;;;;;;;;;;;;;5080530;28;20386;-69
2024/04/06 01:12:55;;;;;;;;;;;;;;;;;;5079564;28;19920;-68
2024/04/06 01:15:20;;;;;;;;;;;;;;;;;;5080685;28;19927;-68
2024/04/06 01:17:46;;;;;;;;;;;;;;;;;;5079891;28;20280;-68
2024/04/06 01:20:11;;;;;;;;;;;;;;;;;;5079730;28;20333;-68
2024/04/06 01:22:36;;;;;;;;;;;;;;;;;;5080274;28;20589;-69
2024/04/06 01:25:04;;;;;;;;;;;;;;;;;;5078425;28;19915;-70
2024/04/06 01:27:32;;;;;;;;;;;;;;;;;;5081206;28;19951;-68
2024/04/06 01:30:00;;;;;;;;;;;;;;;;;;5079456;28;19920;-68
2024/04/06 01:32:25;;;;;;;;;;;;;;;;;;5079237;28;20341;-69
2024/04/06 01:34:51;;;;;;;;;;;;;;;;;;5081044;28;20368;-68
2024/04/06 01:37:16;;;;;;;;;;;;;;;;;;5078875;28;19919;-68
2024/04/06 01:39:41;;;;;;;;;;;;;;;;;;5067299;28;20003;-68
2024/04/06 01:42:06;;;;;;;;;;;;;;;;;;5079300;28;19916;-68
2024/04/06 01:44:32;;;;;;;;;;;;;;;;;;5095664;27;20442;-68
2024/04/06 01:46:58;;;;;;;;;;;;;;;;;;5080401;28;20037;-68
2024/04/06 01:49:25;;;;;;;;;;;;;;;;;;5079184;28;20475;-68
2024/04/06 01:51:51;;;;;;;;;;;;;;;;;;5081720;28;21516;-69
2024/04/06 01:54:17;;;;;;;;;;;;;;;;;;5078458;28;19941;-69
2024/04/06 01:56:42;;;;;;;;;;;;;;;;;;5080402;28;19916;-68
2024/04/06 01:59:07;;;;;;;;;;;;;;;;;;5080828;28;20016;-69
2024/04/06 02:01:32;;;;;;;;;;;;;;;;;;5079441;28;19920;-69
2024/04/06 02:04:00;;;;;;;;;;;;;;;;;;5078912;28;20216;-68
2024/04/06 02:06:28;;;;;;;;;;;;;;;;;;5078340;28;20569;-70
2024/04/06 02:08:54;;;;;;;;;;;;;;;;;;5077514;28;19920;-69
2024/04/06 02:11:19;;;;;;;;;;;;;;;;;;5078589;28;20198;-71
2024/04/06 02:13:44;;;;;;;;;;;;;;;;;;5077886;28;20206;-67
2024/04/06 02:16:11;;;;;;;;;;;;;;;;;;5080902;28;20054;-69
2024/04/06 02:18:37;;;;;;;;;;;;;;;;;;5080809;28;20414;-68
2024/04/06 02:21:02;;;;;;;;;;;;;;;;;;5079928;28;20035;-69
2024/04/06 02:23:30;;;;;;;;;;;;;;;;;;5080162;28;19920;-69
2024/04/06 02:25:57;;;;;;;;;;;;;;;;;;5077968;28;20048;-68
2024/04/06 02:28:23;;;;;;;;;;;;;;;;;;5080126;28;19924;-69
2024/04/06 02:30:51;;;;;;;;;;;;;;;;;;5084844;28;20377;-69
2024/04/06 02:33:19;;;;;;;;;;;;;;;;;;5081434;28;20263;-68
2024/04/06 02:35:45;;;;;;;;;;;;;;;;;;5084281;28;19938;-68
2024/04/06 02:38:10;;;;;;;;;;;;;;;;;;5081843;28;19951;-69
2024/04/06 02:40:35;;;;;;;;;;;;;;;;;;5067466;28;19912;-68
2024/04/06 02:43:04;;;;;;;;;;;;;;;;;;5084889;28;19920;-69
2024/04/06 02:45:29;;;;;;;;;;;;;;;;;;5081580;28;19927;-69
2024/04/06 02:47:54;;;;;;;;;;;;;;;;;;5081002;28;19996;-70
2024/04/06 02:50:22;;;;;;;;;;;;;;;;;;5079801;28;19928;-68
2024/04/06 02:52:47;;;;;;;;;;;;;;;;;;5082744;28;20360;-68
2024/04/06 02:55:15;;;;;;;;;;;;;;;;;;5081230;28;20010;-69
2024/04/06 02:57:41;;;;;;;;;;;;;;;;;;5082657;28;19926;-69
2024/04/06 03:00:07;;;;;;;;;;;;;;;;;;5082415;28;19920;-68
2024/04/06 03:02:35;;;;;;;;;;;;;;;;;;5081380;28;19916;-68
2024/04/06 03:05:00;;;;;;;;;;;;;;;;;;5081878;28;19922;-69
2024/04/06 03:07:26;;;;;;;;;;;;;;;;;;5065583;28;19920;-68
2024/04/06 03:09:53;;;;;;;;;;;;;;;;;;5083273;28;19942;-70
2024/04/06 03:12:21;;;;;;;;;;;;;;;;;;5083718;28;20286;-68
2024/04/06 03:14:49;;;;;;;;;;;;;;;;;;5066115;28;20002;-69
2024/04/06 03:17:17;;;;;;;;;;;;;;;;;;5082380;28;20270;-69
2024/04/06 03:19:42;;;;;;;;;;;;;;;;;;5080280;28;19922;-68
2024/04/06 03:22:10;;;;;;;;;;;;;;;;;;5084267;28;21527;-69
2024/04/06 03:24:35;;;;;;;;;;;;;;;;;;5079536;28;20009;-69
2024/04/06 03:27:00;;;;;;;;;;;;;;;;;;5082584;28;20473;-69
2024/04/06 03:29:26;;;;;;;;;;;;;;;;;;5083740;28;19920;-68
2024/04/06 03:31:51;;;;;;;;;;;;;;;;;;5083296;28;19915;-68
2024/04/06 03:34:19;;;;;;;;;;;;;;;;;;5082172;28;19919;-68
2024/04/06 03:36:47;;;;;;;;;;;;;;;;;;5082135;28;19992;-68
2024/04/06 03:39:12;;;;;;;;;;;;;;;;;;5081173;28;20048;-68
2024/04/06 03:41:37;;;;;;;;;;;;;;;;;;5081589;28;19968;-70
2024/04/06 03:44:05;;;;;;;;;;;;;;;;;;5082211;28;19920;-69
2024/04/06 03:46:33;;;;;;;;;;;;;;;;;;5082349;28;20334;-69
2024/04/06 03:48:58;;;;;;;;;;;;;;;;;;5064292;28;20011;-70
2024/04/06 03:51:27;;;;;;;;;;;;;;;;;;5081574;28;19924;-69
2024/04/06 03:53:52;;;;;;;;;;;;;;;;;;5081132;28;19923;-69
2024/04/06 03:56:19;;;;;;;;;;;;;;;;;;5081377;28;20141;-68
2024/04/06 03:58:52;;;;;;;;;;;;;;;;;;5081889;28;20410;-69
2024/04/06 04:01:18;;;;;;;;;;;;;;;;;;5082248;28;20360;-69
2024/04/06 04:07:03;;;;;;;;;;;;;;;;;;5081331;28;19923;-69
2024/04/06 04:09:28;;;;;;;;;;;;;;;;;;5081528;28;19924;-68
2024/04/06 04:11:53;;;;;;;;;;;;;;;;;;5082435;28;20374;-68
2024/04/06 04:14:18;;;;;;;;;;;;;;;;;;5066643;28;19916;-69
2024/04/06 04:16:47;;;;;;;;;;;;;;;;;;5081459;28;20339;-68
2024/04/06 04:19:17;;;;;;;;;;;;;;;;;;5079195;28;19920;-68
2024/04/06 04:21:42;;;;;;;;;;;;;;;;;;5081396;28;20337;-69
2024/04/06 04:24:08;;;;;;;;;;;;;;;;;;5080292;28;19919;-69
2024/04/06 04:26:33;;;;;;;;;;;;;;;;;;5060601;28;19955;-68
2024/04/06 04:28:58;;;;;;;;;;;;;;;;;;5082537;28;20371;-69
2024/04/06 04:31:29;;;;;;;;;;;;;;;;;;5082326;28;20271;-68
2024/04/06 04:33:56;;;;;;;;;;;;;;;;;;5082148;28;19916;-68
2024/04/06 04:36:24;;;;;;;;;;;;;;;;;;5061814;28;20359;-69
2024/04/06 04:38:49;;;;;;;;;;;;;;;;;;5081961;28;20339;-69
2024/04/06 04:41:18;;;;;;;;;;;;;;;;;;5079068;28;19924;-69
2024/04/06 04:43:43;;;;;;;;;;;;;;;;;;5081714;28;19973;-68
2024/04/06 04:46:11;;;;;;;;;;;;;;;;;;5080511;28;20366;-69
2024/04/06 04:48:36;;;;;;;;;;;;;;;;;;5077309;28;19936;-69
2024/04/06 04:51:04;;;;;;;;;;;;;;;;;;5080488;28;19985;-67
2024/04/06 04:53:29;;;;;;;;;;;;;;;;;;5080040;28;19927;-68
2024/04/06 04:55:57;;;;;;;;;;;;;;;;;;5079383;28;19916;-68
2024/04/06 04:58:22;;;;;;;;;;;;;;;;;;5079995;28;20527;-69
2024/04/06 05:00:49;;;;;;;;;;;;;;;;;;5079880;28;19963;-70
2024/04/06 05:03:15;;;;;;;;;;;;;;;;;;5080760;28;19919;-68
2024/04/06 05:05:42;;;;;;;;;;;;;;;;;;5081229;28;19920;-69
2024/04/06 05:08:08;;;;;;;;;;;;;;;;;;5063675;28;20363;-69
2024/04/06 05:10:33;;;;;;;;;;;;;;;;;;5081227;28;19920;-69
2024/04/06 05:13:01;;;;;;;;;;;;;;;;;;5062777;28;19930;-69
2024/04/06 05:15:30;;;;;;;;;;;;;;;;;;5080408;28;19917;-68
2024/04/06 05:18:00;;;;;;;;;;;;;;;;;;5063517;28;19916;-67
2024/04/06 05:20:28;;;;;;;;;;;;;;;;;;5079768;28;19951;-67
2024/04/06 05:22:56;;;;;;;;;;;;;;;;;;5078653;28;19916;-67
2024/04/06 05:25:24;;;;;;;;;;;;;;;;;;5061218;28;20481;-68
2024/04/06 05:27:49;;;;;;;;;;;;;;;;;;5077572;28;19927;-68
2024/04/06 05:30:14;;;;;;;;;;;;;;;;;;5080068;28;19927;-68
2024/04/06 05:32:40;;;;;;;;;;;;;;;;;;5078850;28;19911;-68
2024/04/06 05:35:06;;;;;;;;;;;;;;;;;;5063474;28;19919;-68
2024/04/06 05:37:33;;;;;;;;;;;;;;;;;;5080205;28;20074;-67
2024/04/06 05:39:59;;;;;;;;;;;;;;;;;;5081405;28;19920;-67
2024/04/06 05:42:27;;;;;;;;;;;;;;;;;;5080619;28;19923;-67
2024/04/06 05:44:52;;;;;;;;;;;;;;;;;;5059208;28;19916;-68
2024/04/06 05:47:18;;;;;;;;;;;;;;;;;;5078594;28;19920;-68
2024/04/06 05:49:43;;;;;;;;;;;;;;;;;;5078638;28;19928;-69
2024/04/06 05:52:09;;;;;;;;;;;;;;;;;;5081687;28;19923;-67
2024/04/06 05:54:37;;;;;;;;;;;;;;;;;;5078791;28;19920;-69
2024/04/06 05:57:05;;;;;;;;;;;;;;;;;;5081673;28;19920;-69
2024/04/06 05:59:30;;;;;;;;;;;;;;;;;;5060797;28;20677;-67
2024/04/06 06:01:55;;;;;;;;;;;;;;;;;;5079229;28;19940;-67
2024/04/06 06:04:23;;;;;;;;;;;;;;;;;;5077752;28;19916;-69
2024/04/06 06:06:51;;;;;;;;;;;;;;;;;;5080396;28;19968;-68
2024/04/06 06:09:16;;;;;;;;;;;;;;;;;;5079196;28;20454;-68
2024/04/06 06:11:46;;;;;;;;;;;;;;;;;;5066488;28;19995;-68
2024/04/06 06:14:14;;;;;;;;;;;;;;;;;;5081248;28;19959;-69
2024/04/06 06:16:42;;;;;;;;;;;;;;;;;;5079810;28;20665;-68
2024/04/06 06:19:10;;;;;;;;;;;;;;;;;;5078864;28;19920;-68
2024/04/06 06:21:35;;;;;;;;;;;;;;;;;;5080831;28;20318;-69
2024/04/06 06:24:03;;;;;;;;;;;;;;;;;;5076745;28;20010;-68
2024/04/06 06:26:28;;;;;;;;;;;;;;;;;;5078961;28;19934;-69
2024/04/06 06:28:56;;;;;;;;;;;;;;;;;;5079355;28;19931;-69
2024/04/06 06:31:24;;;;;;;;;;;;;;;;;;5080340;28;19931;-69
2024/04/06 06:33:49;;;;;;;;;;;;;;;;;;5078542;28;19915;-69
2024/04/06 06:36:14;;;;;;;;;;;;;;;;;;5079722;28;19919;-68
2024/04/06 06:38:39;;;;;;;;;;;;;;;;;;5081769;28;19931;-68
2024/04/06 06:41:05;;;;;;;;;;;;;;;;;;5077915;28;20375;-68
2024/04/06 06:43:32;;;;;;;;;;;;;;;;;;5078767;28;20062;-68
2024/04/06 06:46:00;;;;;;;;;;;;;;;;;;5081393;28;19916;-69
2024/04/06 06:48:25;;;;;;;;;;;;;;;;;;5077306;28;19924;-68
2024/04/06 06:50:53;;;;;;;;;;;;;;;;;;5081118;28;19928;-68
2024/04/06 06:53:21;;;;;;;;;;;;;;;;;;5078300;28;19927;-69
2024/04/06 06:55:46;;;;;;;;;;;;;;;;;;5079418;28;20323;-70
2024/04/06 06:58:14;;;;;;;;;;;;;;;;;;5079801;28;19916;-67
2024/04/06 07:00:41;;;;;;;;;;;;;;;;;;5081101;28;19923;-68
2024/04/06 07:03:06;;;;;;;;;;;;;;;;;;5077393;28;19951;-69
2024/04/06 07:05:31;;;;;;;;;;;;;;;;;;5078590;28;20384;-69
2024/04/06 07:08:00;;;;;;;;;;;;;;;;;;5078773;28;19936;-68
2024/04/06 07:10:25;;;;;;;;;;;;;;;;;;5080501;28;20128;-68
2024/04/06 07:12:50;;;;;;;;;;;;;;;;;;5078326;28;19923;-69
2024/04/06 07:15:18;;;;;;;;;;;;;;;;;;5083758;28;19971;-69
2024/04/06 07:17:43;;;;;;;;;;;;;;;;;;5098063;27;20414;-69
2024/04/06 07:20:11;;;;;;;;;;;;;;;;;;5082477;28;19924;-69
2024/04/06 07:22:36;;;;;;;;;;;;;;;;;;5082328;28;19943;-68
2024/04/06 07:25:04;;;;;;;;;;;;;;;;;;5083098;28;19920;-68
2024/04/06 07:27:29;;;;;;;;;;;;;;;;;;5081790;28;19920;-69
2024/04/06 07:29:54;;;;;;;;;;;;;;;;;;5078974;28;20375;-69
2024/04/06 07:32:22;;;;;;;;;;;;;;;;;;5081473;28;19969;-69
2024/04/06 07:34:50;;;;;;;;;;;;;;;;;;5083260;28;20043;-69
2024/04/06 07:37:18;;;;;;;;;;;;;;;;;;5082006;28;20614;-69
2024/04/06 07:39:48;;;;;;;;;;;;;;;;;;5083484;28;19919;-70
2024/04/06 07:42:13;;;;;;;;;;;;;;;;;;5083078;28;20009;-68
2024/04/06 07:44:38;;;;;;;;;;;;;;;;;;5083740;28;20034;-67
2024/04/06 07:47:04;;;;;;;;;;;;;;;;;;5082405;28;20018;-69
2024/04/06 07:49:31;;;;;;;;;;;;;;;;;;5082275;28;21176;-68
2024/04/06 07:51:59;;;;;;;;;;;;;;;;;;5082320;28;19939;-68
2024/04/06 07:54:27;;;;;;;;;;;;;;;;;;5081415;28;19981;-69
2024/04/06 07:56:52;;;;;;;;;;;;;;;;;;5083354;28;19916;-69
2024/04/06 07:59:18;;;;;;;;;;;;;;;;;;5063575;28;19947;-68
2024/04/06 08:01:43;;;;;;;;;;;;;;;;;;5080364;28;20302;-68
2024/04/06 08:04:10;;;;;;;;;;;;;;;;;;5080924;28;19916;-69
2024/04/06 08:06:39;;;;;;;;;;;;;;;;;;5081599;28;19986;-68
2024/04/06 08:09:04;;;;;;;;;;;;;;;;;;5081941;28;20811;-68
2024/04/06 08:11:29;;;;;;;;;;;;;;;;;;5084763;28;19916;-67
2024/04/06 08:13:55;;;;;;;;;;;;;;;;;;5062225;28;20116;-69
2024/04/06 08:16:25;;;;;;;;;;;;;;;;;;5082733;28;21485;-69
2024/04/06 08:18:54;;;;;;;;;;;;;;;;;;5074940;28;20017;-70
2024/04/06 08:21:21;;;;;;;;;;;;;;;;;;5080938;28;20533;-68
2024/04/06 08:23:52;;;;;;;;;;;;;;;;;;5082393;28;19916;-69
2024/04/06 08:26:18;;;;;;;;;;;;;;;;;;5079718;28;20514;-69
2024/04/06 08:28:43;;;;;;;;;;;;;;;;;;5081158;28;19924;-68
2024/04/06 08:31:11;;;;;;;;;;;;;;;;;;5079667;28;20348;-68
2024/04/06 08:33:38;;;;;;;;;;;;;;;;;;5080012;28;19922;-68
2024/04/06 08:36:04;;;;;;;;;;;;;;;;;;5082676;28;19912;-68
2024/04/06 08:38:32;;;;;;;;;;;;;;;;;;5062482;28;19916;-69
2024/04/06 08:40:57;;;;;;;;;;;;;;;;;;5066644;28;19915;-70
2024/04/06 08:43:22;;;;;;;;;;;;;;;;;;5080842;28;21644;-68
2024/04/06 08:45:50;;;;;;;;;;;;;;;;;;5079392;28;19927;-69
2024/04/06 08:48:18;;;;;;;;;;;;;;;;;;5074462;28;20371;-67
2024/04/06 08:50:43;;;;;;;;;;;;;;;;;;5080520;28;19973;-68
2024/04/06 08:53:08;;;;;;;;;;;;;;;;;;5080554;28;19920;-68
2024/04/06 08:55:34;;;;;;;;;;;;;;;;;;5080971;28;19916;-69
2024/04/06 08:57:59;;;;;;;;;;;;;;;;;;5082155;28;19916;-69
2024/04/06 09:00:24;;;;;;;;;;;;;;;;;;5063299;28;19916;-69
2024/04/06 09:02:52;;;;;;;;;;;;;;;;;;5080847;28;19942;-70
2024/04/06 09:05:20;;;;;;;;;;;;;;;;;;5081598;28;20010;-68
2024/04/06 09:07:46;;;;;;;;;;;;;;;;;;5081663;28;19922;-69
2024/04/06 09:10:11;;;;;;;;;;;;;;;;;;5079526;28;19920;-69
2024/04/06 09:12:41;;;;;;;;;;;;;;;;;;5081517;28;19959;-68
2024/04/06 09:15:14;;;;;;;;;;;;;;;;;;5082212;28;20013;-68
2024/04/06 09:17:45;;;;;;;;;;;;;;;;;;5081146;28;19915;-68
2024/04/06 09:20:12;;;;;;;;;;;;;;;;;;5081489;28;19916;-70
2024/04/06 09:22:37;;;;;;;;;;;;;;;;;;5063276;28;19927;-69
2024/04/06 09:25:03;;;;;;;;;;;;;;;;;;5079869;28;19956;-69
2024/04/06 09:27:30;;;;;;;;;;;;;;;;;;5078126;28;20052;-69
2024/04/06 09:29:55;;;;;;;;;;;;;;;;;;5079272;28;19957;-68
2024/04/06 09:32:24;;;;;;;;;;;;;;;;;;5076401;28;20277;-69
2024/04/06 09:34:53;;;;;;;;;;;;;;;;;;5079032;28;19919;-69
2024/04/06 09:37:18;;;;;;;;;;;;;;;;;;5059254;28;19922;-69
2024/04/06 09:39:45;;;;;;;;;;;;;;;;;;5080005;28;19920;-69
2024/04/06 09:42:13;;;;;;;;;;;;;;;;;;5080237;28;20053;-69
2024/04/06 09:44:41;;;;;;;;;;;;;;;;;;5080612;28;19988;-68
2024/04/06 09:47:06;;;;;;;;;;;;;;;;;;5081801;28;20371;-68
2024/04/06 09:49:36;;;;;;;;;;;;;;;;;;5079046;28;19923;-69
2024/04/06 09:52:02;;;;;;;;;;;;;;;;;;5080194;28;20316;-69
2024/04/06 09:54:27;;;;;;;;;;;;;;;;;;5081167;28;19919;-67
2024/04/06 09:56:52;;;;;;;;;;;;;;;;;;5081015;28;20674;-67
2024/04/06 09:59:18;;;;;;;;;;;;;;;;;;5081522;28;19980;-67
2024/04/06 10:01:54;;;;;;;;;;;;;;;;;;5078418;28;20034;-68
2024/04/06 10:04:20;;;;;;;;;;;;;;;;;;5078863;28;19981;-68
2024/04/06 10:06:48;;;;;;;;;;;;;;;;;;5079354;28;20355;-67
2024/04/06 10:09:16;;;;;;;;;;;;;;;;;;5079606;28;19920;-67
2024/04/06 10:11:41;;;;;;;;;;;;;;;;;;5079281;28;19912;-67
2024/04/06 10:14:14;;;;;;;;;;;;;;;;;;5079770;28;19916;-68
2024/04/06 10:16:41;;;;;;;;;;;;;;;;;;5079539;28;19995;-67
2024/04/06 10:19:12;;;;;;;;;;;;;;;;;;5077678;28;19959;-68
2024/04/06 10:21:38;;;;;;;;;;;;;;;;;;5079408;28;19923;-68
2024/04/06 10:24:05;;;;;;;;;;;;;;;;;;5078099;28;19920;-68
2024/04/06 10:26:33;;;;;;;;;;;;;;;;;;5080597;28;20330;-67
2024/04/06 10:29:01;;;;;;;;;;;;;;;;;;5078502;28;19924;-69
2024/04/06 10:31:26;;;;;;;;;;;;;;;;;;5078567;28;19957;-68
2024/04/06 10:33:52;;;;;;;;;;;;;;;;;;5077186;28;19923;-69
2024/04/06 10:36:19;;;;;;;;;;;;;;;;;;5077105;28;20387;-68
2024/04/06 10:38:47;;;;;;;;;;;;;;;;;;5073902;28;19920;-69
2024/04/06 10:41:12;;;;;;;;;;;;;;;;;;5080293;28;19915;-71
2024/04/06 10:43:41;;;;;;;;;;;;;;;;;;5077955;28;20351;-66
2024/04/06 10:46:11;;;;;;;;;;;;;;;;;;5073113;28;20319;-66
2024/04/06 10:48:40;;;;;;;;;;;;;;;;;;5076580;28;19920;-67
2024/04/06 10:51:08;;;;;;;;;;;;;;;;;;5082082;28;19936;-69
2024/04/06 10:53:36;;;;;;;;;;;;;;;;;;5077471;28;19920;-67
2024/04/06 10:56:04;;;;;;;;;;;;;;;;;;5078180;28;19920;-66
2024/04/06 11:01:46;;;;;;;;;;;;;;;;;;5082323;28;20282;-68
2024/04/06 11:04:12;;;;;;;;;;;;;;;;;;5081744;28;20356;-66
2024/04/06 11:06:37;;;;;;;;;;;;;;;;;;5081663;28;19931;-67
2024/04/06 11:09:05;;;;;;;;;;;;;;;;;;5048026;28;19920;-68
2024/04/06 11:11:33;;;;;;;;;;;;;;;;;;5073065;28;19912;-67
2024/04/06 11:14:02;;;;;;;;;;;;;;;;;;5060211;28;20392;-69
2024/04/06 11:16:30;;;;;;;;;;;;;;;;;;5078588;28;19920;-70
2024/04/06 11:18:56;;;;;;;;;;;;;;;;;;5077775;28;19913;-68
2024/04/06 11:21:21;;;;;;;;;;;;;;;;;;5065110;28;19927;-69
2024/04/06 11:23:49;;;;;;;;;;;;;;;;;;5081473;28;19923;-68
2024/04/06 11:26:14;;;;;;;;;;;;;;;;;;5076942;28;19912;-68
2024/04/06 11:28:44;;;;;;;;;;;;;;;;;;5082596;28;19935;-68
2024/04/06 11:31:16;;;;;;;;;;;;;;;;;;5079956;28;20023;-69
2024/04/06 11:33:44;;;;;;;;;;;;;;;;;;5079917;28;19936;-67
2024/04/06 11:36:09;;;;;;;;;;;;;;;;;;5081581;28;19951;-68
2024/04/06 11:38:35;;;;;;;;;;;;;;;;;;5079699;28;20382;-67
2024/04/06 11:41:02;;;;;;;;;;;;;;;;;;5082923;28;19927;-67
2024/04/06 11:43:28;;;;;;;;;;;;;;;;;;5077926;28;19995;-68
2024/04/06 11:45:55;;;;;;;;;;;;;;;;;;5056733;28;19920;-67
2024/04/06 11:48:22;;;;;;;;;;;;;;;;;;5077885;28;19923;-72
2024/04/06 11:50:47;;;;;;;;;;;;;;;;;;5079177;28;19968;-68
2024/04/06 11:53:14;;;;;;;;;;;;;;;;;;5082280;28;19941;-68
2024/04/06 11:55:42;;;;;;;;;;;;;;;;;;5079731;28;20007;-69
2024/04/06 11:58:07;;;;;;;;;;;;;;;;;;5079491;28;19916;-69
2024/04/06 12:00:35;;;;;;;;;;;;;;;;;;5060465;28;19968;-68
2024/04/06 12:03:00;;;;;;;;;;;;;;;;;;5078328;28;19923;-70
2024/04/06 12:05:25;;;;;;;;;;;;;;;;;;5080389;28;19916;-67
2024/04/06 12:07:52;;;;;;;;;;;;;;;;;;5079678;28;19959;-69
2024/04/06 12:10:20;;;;;;;;;;;;;;;;;;5063026;28;19976;-67
2024/04/06 12:12:48;;;;;;;;;;;;;;;;;;5079209;28;19920;-68
2024/04/06 12:15:15;;;;;;;;;;;;;;;;;;5082309;28;19972;-68
2024/04/06 12:17:43;;;;;;;;;;;;;;;;;;5080152;28;19971;-68
2024/04/06 12:20:08;;;;;;;;;;;;;;;;;;5079575;28;19919;-67
2024/04/06 12:22:38;;;;;;;;;;;;;;;;;;5081645;28;19999;-69
2024/04/06 12:25:07;;;;;;;;;;;;;;;;;;5079557;28;19915;-67
2024/04/06 12:27:32;;;;;;;;;;;;;;;;;;5080557;28;19970;-68
2024/04/06 12:29:57;;;;;;;;;;;;;;;;;;5082863;28;20656;-67
2024/04/06 12:32:22;;;;;;;;;;;;;;;;;;5078632;28;19973;-67
2024/04/06 12:34:50;;;;;;;;;;;;;;;;;;5046515;28;19920;-68
2024/04/06 12:37:21;;;;;;;;;;;;;;;;;;5079927;28;19922;-68
2024/04/06 12:39:49;;;;;;;;;;;;;;;;;;5081083;28;20386;-67
2024/04/06 12:42:14;;;;;;;;;;;;;;;;;;5077455;28;19920;-67
2024/04/06 12:44:40;;;;;;;;;;;;;;;;;;5060541;28;19927;-69
2024/04/06 12:47:05;;;;;;;;;;;;;;;;;;5080603;28;20018;-68
2024/04/06 12:49:33;;;;;;;;;;;;;;;;;;5077577;28;19928;-67
2024/04/06 12:52:02;;;;;;;;;;;;;;;;;;5080312;28;20380;-67
2024/04/06 12:54:31;;;;;;;;;;;;;;;;;;5079972;28;19920;-68
2024/04/06 12:59:41;;;;;;;;;;;;;;;;;;5083602;28;19920;-69
2024/04/06 13:02:06;;;;;;;;;;;;;;;;;;5078593;28;19916;-69
2024/04/06 13:04:32;;;;;;;;;;;;;;;;;;5081946;28;20256;-69
2024/04/06 13:07:01;;;;;;;;;;;;;;;;;;5079152;28;19920;-69
2024/04/06 13:09:26;;;;;;;;;;;;;;;;;;5058655;28;20011;-67
2024/04/06 13:11:57;;;;;;;;;;;;;;;;;;5079319;28;19920;-67
2024/04/06 13:14:22;;;;;;;;;;;;;;;;;;5080622;28;19915;-67
2024/04/06 13:16:50;;;;;;;;;;;;;;;;;;5079262;28;20267;-68
2024/04/06 13:19:15;;;;;;;;;;;;;;;;;;5081420;28;20034;-68
2024/04/06 13:21:45;;;;;;;;;;;;;;;;;;5079140;28;20322;-67
2024/04/06 13:24:15;;;;;;;;;;;;;;;;;;5079738;28;19955;-68
2024/04/06 13:26:41;;;;;;;;;;;;;;;;;;5080219;28;19917;-71
2024/04/06 13:29:06;;;;;;;;;;;;;;;;;;5079421;28;19950;-68
2024/04/06 13:31:36;;;;;;;;;;;;;;;;;;5081187;28;19928;-67
2024/04/06 13:34:03;;;;;;;;;;;;;;;;;;5079750;28;19963;-69
2024/04/06 13:36:31;;;;;;;;;;;;;;;;;;5077201;28;19916;-67
2024/04/06 13:38:56;;;;;;;;;;;;;;;;;;5081819;28;19927;-69
2024/04/06 13:41:24;;;;;;;;;;;;;;;;;;5078460;28;20178;-69
2024/04/06 13:43:49;;;;;;;;;;;;;;;;;;5081036;28;20508;-68
2024/04/06 13:46:19;;;;;;;;;;;;;;;;;;5079165;28;19919;-68
2024/04/06 13:48:47;;;;;;;;;;;;;;;;;;5078524;28;19923;-69
2024/04/06 13:51:13;;;;;;;;;;;;;;;;;;5078471;28;20363;-69
2024/04/06 13:53:42;;;;;;;;;;;;;;;;;;5080858;28;20248;-68
2024/04/06 13:56:10;;;;;;;;;;;;;;;;;;5080522;28;20423;-69
2024/04/06 13:58:35;;;;;;;;;;;;;;;;;;5078991;28;19935;-69
2024/04/06 14:01:01;;;;;;;;;;;;;;;;;;5080304;28;19920;-69
2024/04/06 14:03:28;;;;;;;;;;;;;;;;;;5076997;28;20023;-67
2024/04/06 14:06:00;;;;;;;;;;;;;;;;;;5077897;28;19962;-68
2024/04/06 14:08:26;;;;;;;;;;;;;;;;;;5078751;28;19927;-68
2024/04/06 14:10:54;;;;;;;;;;;;;;;;;;5078219;28;19915;-68
2024/04/06 14:13:24;;;;;;;;;;;;;;;;;;5078527;28;19920;-68
2024/04/06 14:15:49;;;;;;;;;;;;;;;;;;5078703;28;19919;-69
2024/04/06 14:18:14;;;;;;;;;;;;;;;;;;5079225;28;19927;-70
2024/04/06 14:20:39;;;;;;;;;;;;;;;;;;5071850;28;19973;-69
2024/04/06 14:23:07;;;;;;;;;;;;;;;;;;5077606;28;20014;-69
2024/04/06 14:25:35;;;;;;;;;;;;;;;;;;5080419;28;19969;-70
2024/04/06 14:28:00;;;;;;;;;;;;;;;;;;5078018;28;19922;-69
2024/04/06 14:30:29;;;;;;;;;;;;;;;;;;5081451;28;19917;-69
2024/04/06 14:32:54;;;;;;;;;;;;;;;;;;5076997;28;20026;-70
2024/04/06 14:35:19;;;;;;;;;;;;;;;;;;5079273;28;20002;-69
2024/04/06 14:37:45;;;;;;;;;;;;;;;;;;5076968;28;19969;-70
2024/04/06 14:40:10;;;;;;;;;;;;;;;;;;5079368;28;20367;-70
2024/04/06 14:42:35;;;;;;;;;;;;;;;;;;5077811;28;19927;-70
2024/04/06 14:45:00;;;;;;;;;;;;;;;;;;5078271;28;20295;-70
2024/04/06 14:47:26;;;;;;;;;;;;;;;;;;5080688;28;19927;-69
2024/04/06 14:49:51;;;;;;;;;;;;;;;;;;5078509;28;19950;-71
2024/04/06 14:52:17;;;;;;;;;;;;;;;;;;5076070;28;19935;-70
2024/04/06 14:54:45;;;;;;;;;;;;;;;;;;5075527;28;19956;-73
2024/04/06 14:57:15;;;;;;;;;;;;;;;;;;5077409;28;19961;-70
2024/04/06 14:59:41;;;;;;;;;;;;;;;;;;5078796;28;19938;-70
2024/04/06 15:02:09;;;;;;;;;;;;;;;;;;5078204;28;20011;-71
2024/04/06 15:04:36;;;;;;;;;;;;;;;;;;5079762;28;19931;-71
2024/04/06 15:07:03;;;;;;;;;;;;;;;;;;5079450;28;20299;-70
2024/04/06 15:09:28;;;;;;;;;;;;;;;;;;5078248;28;19924;-70
2024/04/06 15:11:53;;;;;;;;;;;;;;;;;;5067739;28;20769;-71
2024/04/06 15:14:22;;;;;;;;;;;;;;;;;;5071107;28;19954;-71
2024/04/06 15:16:47;;;;;;;;;;;;;;;;;;5078423;28;20368;-71
2024/04/06 15:19:15;;;;;;;;;;;;;;;;;;5076278;28;19942;-72
2024/04/06 15:21:40;;;;;;;;;;;;;;;;;;5076764;28;19916;-71
2024/04/06 15:24:08;;;;;;;;;;;;;;;;;;5070371;28;19924;-70
2024/04/06 15:26:36;;;;;;;;;;;;;;;;;;5079983;28;20158;-71
2024/04/06 15:29:01;;;;;;;;;;;;;;;;;;5073823;28;20459;-72
2024/04/06 15:31:27;;;;;;;;;;;;;;;;;;5077540;28;19943;-71
2024/04/06 15:33:52;;;;;;;;;;;;;;;;;;5076970;28;20468;-71
2024/04/06 15:36:19;;;;;;;;;;;;;;;;;;5082529;28;19916;-71
2024/04/06 15:38:48;;;;;;;;;;;;;;;;;;5081352;28;19920;-71
2024/04/06 15:41:14;;;;;;;;;;;;;;;;;;5082662;28;19920;-72
2024/04/06 15:44:00;;;;;;;;;;;;;;;;;;5082492;28;19915;-71
2024/04/06 15:49:04;;;;;;;;;;;;;;;;;;5796609;22;19929;-91
2024/04/06 15:51:33;;;;;;;;;;;;;;;;;;5025208;28;19916;-86
2024/04/06 15:54:17;;;;;;;;;;;;;;;;;;5038926;28;20259;-86
2024/04/06 15:56:48;;;;;;;;;;;;;;;;;;5039143;28;19935;-88
2024/04/06 15:59:32;;;;;;;;;;;;;;;;;;5035663;28;19921;-85
2024/04/06 16:01:58;;;;;;;;;;;;;;;;;;5034857;28;19970;-87
2024/04/06 16:04:27;;;;;;;;;;;;;;;;;;5019256;28;19940;-89
2024/04/06 16:06:55;;;;;;;;;;;;;;;;;;5036709;28;19939;-87
2024/04/06 16:32:31;;;;;;;;;;;;;;;;;;4992723;28;19953;-86
2024/04/06 16:35:13;;;;;;;;;;;;;;;;;;4961188;28;19977;-90
2024/04/06 17:19:16;;;;;;;;;;;;;;;;;;5100593;22;20843;-76
2024/04/06 17:21:45;;;;;;;;;;;;;;;;;;5078093;28;20022;-76
2024/04/06 17:24:13;;;;;;;;;;;;;;;;;;5077922;28;20412;-76
2024/04/06 17:26:38;;;;;;;;;;;;;;;;;;5078416;28;19927;-77
2024/04/06 17:29:03;;;;;;;;;;;;;;;;;;5079729;28;20424;-78
2024/04/06 17:31:29;;;;;;;;;;;;;;;;;;5080283;28;19916;-77
2024/04/06 17:33:56;;;;;;;;;;;;;;;;;;5078169;28;19923;-77
2024/04/06 17:36:24;;;;;;;;;;;;;;;;;;5079980;28;20582;-76
2024/04/06 17:38:50;;;;;;;;;;;;;;;;;;5075528;28;20119;-77
2024/04/06 17:41:15;;;;;;;;;;;;;;;;;;5062693;28;20310;-77
2024/04/06 17:43:40;;;;;;;;;;;;;;;;;;5077284;28;19916;-76
2024/04/06 17:46:06;;;;;;;;;;;;;;;;;;5081441;28;19915;-77
2024/04/06 17:48:36;;;;;;;;;;;;;;;;;;5090241;27;19926;-76
2024/04/06 17:51:04;;;;;;;;;;;;;;;;;;5072624;28;19924;-76
2024/04/06 17:53:29;;;;;;;;;;;;;;;;;;5089307;27;19969;-74
2024/04/06 17:55:55;;;;;;;;;;;;;;;;;;5097740;27;19919;-75
2024/04/06 17:58:22;;;;;;;;;;;;;;;;;;5080170;27;19927;-77
2024/04/06 18:00:47;;;;;;;;;;;;;;;;;;5089677;27;19920;-75